sensor_id;sensor_type;location;lat;lon;timestamp;pressure;altitude;pressure_sealevel;temperature;humidity
1401;BME280;46518;48.842;8.926;2024-02-26T00:01:08;95253.41;;;7.53;63.53
1401;BME280;46518;48.842;8.926;2024-02-26T00:03:36;95257.22;;;7.71;63.81
1401;BME280;46518;48.842;8.926;2024-02-26T00:06:05;95247.66;;;7.91;63.15
1401;BME280;46518;48.842;8.926;2024-02-26T00:08:35;95249.69;;;7.99;62.35
1401;BME280;46518;48.842;8.926;2024-02-26T00:11:03;95250.75;;;7.98;62.32
1401;BME280;46518;48.842;8.926;2024-02-26T00:13:31;95250.31;;;7.86;62.37
1401;BME280;46518;48.842;8.926;2024-02-26T00:15:59;95239.00;;;7.90;62.20
1401;BME280;46518;48.842;8.926;2024-02-26T00:18:28;95238.63;;;7.73;62.83
1401;BME280;46518;48.842;8.926;2024-02-26T00:20:56;95245.41;;;7.79;62.77
1401;BME280;46518;48.842;8.926;2024-02-26T00:23:24;95249.13;;;7.68;61.46
1401;BME280;46518;48.842;8.926;2024-02-26T00:25:55;95244.66;;;7.68;62.48
1401;BME280;46518;48.842;8.926;2024-02-26T00:28:26;95253.03;;;7.70;61.85
1401;BME280;46518;48.842;8.926;2024-02-26T00:30:54;95255.38;;;7.72;61.15
1401;BME280;46518;48.842;8.926;2024-02-26T00:33:23;95257.78;;;7.63;62.06
1401;BME280;46518;48.842;8.926;2024-02-26T00:35:51;95243.25;;;7.47;61.37
1401;BME280;46518;48.842;8.926;2024-02-26T00:38:19;95251.63;;;7.49;61.48
1401;BME280;46518;48.842;8.926;2024-02-26T00:40:47;95256.44;;;7.21;62.70
1401;BME280;46518;48.842;8.926;2024-02-26T00:43:17;95243.00;;;6.88;64.50
1401;BME280;46518;48.842;8.926;2024-02-26T00:45:46;95247.91;;;7.05;64.42
1401;BME280;46518;48.842;8.926;2024-02-26T00:48:14;95258.94;;;7.47;63.61
1401;BME280;46518;48.842;8.926;2024-02-26T00:50:42;95256.78;;;7.59;63.87
1401;BME280;46518;48.842;8.926;2024-02-26T00:53:11;95245.06;;;7.51;63.02
1401;BME280;46518;48.842;8.926;2024-02-26T00:55:39;95255.06;;;7.78;63.72
1401;BME280;46518;48.842;8.926;2024-02-26T00:58:07;95258.72;;;7.83;63.59
1401;BME280;46518;48.842;8.926;2024-02-26T01:00:36;95260.19;;;7.99;63.18
1401;BME280;46518;48.842;8.926;2024-02-26T01:03:05;95255.75;;;7.94;61.90
1401;BME280;46518;48.842;8.926;2024-02-26T01:05:33;95256.31;;;8.20;61.52
1401;BME280;46518;48.842;8.926;2024-02-26T01:08:05;95248.66;;;8.29;61.34
1401;BME280;46518;48.842;8.926;2024-02-26T01:10:33;95256.09;;;8.51;60.97
1401;BME280;46518;48.842;8.926;2024-02-26T01:13:02;95244.97;;;8.59;59.95
1401;BME280;46518;48.842;8.926;2024-02-26T01:15:30;95245.72;;;8.65;59.99
1401;BME280;46518;48.842;8.926;2024-02-26T01:18:00;95234.00;;;8.57;61.05
1401;BME280;46518;48.842;8.926;2024-02-26T01:20:28;95233.38;;;8.41;61.94
1401;BME280;46518;48.842;8.926;2024-02-26T01:22:56;95248.75;;;8.48;62.00
1401;BME280;46518;48.842;8.926;2024-02-26T01:25:24;95233.06;;;8.43;61.61
1401;BME280;46518;48.842;8.926;2024-02-26T01:27:52;95239.34;;;8.47;60.65
1401;BME280;46518;48.842;8.926;2024-02-26T01:30:20;95238.63;;;8.36;60.56
1401;BME280;46518;48.842;8.926;2024-02-26T01:32:48;95240.63;;;7.86;64.18
1401;BME280;46518;48.842;8.926;2024-02-26T01:35:18;95258.28;;;7.70;65.83
1401;BME280;46518;48.842;8.926;2024-02-26T01:37:47;95264.66;;;7.04;70.39
1401;BME280;46518;48.842;8.926;2024-02-26T01:40:15;95263.09;;;6.98;69.21
1401;BME280;46518;48.842;8.926;2024-02-26T01:42:46;95274.19;;;6.69;73.37
1401;BME280;46518;48.842;8.926;2024-02-26T01:45:16;95291.22;;;6.16;75.97
1401;BME280;46518;48.842;8.926;2024-02-26T01:47:50;95273.44;;;6.43;71.14
1401;BME280;46518;48.842;8.926;2024-02-26T01:50:20;95289.34;;;6.62;71.63
1401;BME280;46518;48.842;8.926;2024-02-26T01:52:50;95294.53;;;6.78;72.08
1401;BME280;46518;48.842;8.926;2024-02-26T01:55:19;95286.41;;;6.84;72.30
1401;BME280;46518;48.842;8.926;2024-02-26T01:57:49;95301.06;;;6.75;73.61
1401;BME280;46518;48.842;8.926;2024-02-26T02:00:19;95288.50;;;6.87;71.62
1401;BME280;46518;48.842;8.926;2024-02-26T02:02:48;95287.84;;;7.16;70.55
1401;BME280;46518;48.842;8.926;2024-02-26T02:05:17;95299.34;;;7.25;69.08
1401;BME280;46518;48.842;8.926;2024-02-26T02:07:47;95296.59;;;7.51;68.03
1401;BME280;46518;48.842;8.926;2024-02-26T02:10:16;95296.34;;;7.52;68.57
1401;BME280;46518;48.842;8.926;2024-02-26T02:12:45;95297.88;;;7.53;70.11
1401;BME280;46518;48.842;8.926;2024-02-26T02:15:13;95294.91;;;7.21;72.27
1401;BME280;46518;48.842;8.926;2024-02-26T02:17:42;95298.38;;;7.01;71.90
1401;BME280;46518;48.842;8.926;2024-02-26T02:20:15;95314.84;;;7.01;72.03
1401;BME280;46518;48.842;8.926;2024-02-26T02:22:45;95313.09;;;6.86;72.38
1401;BME280;46518;48.842;8.926;2024-02-26T02:25:13;95318.31;;;6.76;69.60
1401;BME280;46518;48.842;8.926;2024-02-26T02:27:42;95312.09;;;6.67;72.29
1401;BME280;46518;48.842;8.926;2024-02-26T02:30:11;95310.50;;;6.71;71.54
1401;BME280;46518;48.842;8.926;2024-02-26T02:32:40;95313.09;;;6.66;73.79
1401;BME280;46518;48.842;8.926;2024-02-26T02:35:09;95297.38;;;6.97;75.15
1401;BME280;46518;48.842;8.926;2024-02-26T02:37:37;95295.66;;;7.31;75.18
1401;BME280;46518;48.842;8.926;2024-02-26T02:40:07;95305.03;;;7.38;72.80
1401;BME280;46518;48.842;8.926;2024-02-26T02:42:36;95299.97;;;6.97;73.34
1401;BME280;46518;48.842;8.926;2024-02-26T02:45:05;95297.91;;;6.83;76.50
1401;BME280;46518;48.842;8.926;2024-02-26T02:47:35;95292.59;;;7.19;76.74
1401;BME280;46518;48.842;8.926;2024-02-26T02:50:04;95293.97;;;6.91;77.83
1401;BME280;46518;48.842;8.926;2024-02-26T02:52:32;95305.50;;;6.80;80.42
1401;BME280;46518;48.842;8.926;2024-02-26T02:55:01;95313.38;;;6.69;82.87
1401;BME280;46518;48.842;8.926;2024-02-26T02:57:31;95305.97;;;7.02;83.00
1401;BME280;46518;48.842;8.926;2024-02-26T02:59:59;95292.19;;;6.86;79.92
1401;BME280;46518;48.842;8.926;2024-02-26T03:02:30;95290.84;;;6.94;81.84
1401;BME280;46518;48.842;8.926;2024-02-26T03:04:58;95293.63;;;7.13;84.01
1401;BME280;46518;48.842;8.926;2024-02-26T03:07:26;95280.47;;;7.33;82.10
1401;BME280;46518;48.842;8.926;2024-02-26T03:09:54;95284.72;;;7.74;81.42
1401;BME280;46518;48.842;8.926;2024-02-26T03:12:22;95292.41;;;7.94;80.91
1401;BME280;46518;48.842;8.926;2024-02-26T03:14:53;95288.41;;;8.07;80.84
1401;BME280;46518;48.842;8.926;2024-02-26T03:17:22;95285.97;;;7.82;82.36
1401;BME280;46518;48.842;8.926;2024-02-26T03:19:51;95284.78;;;7.59;81.84
1401;BME280;46518;48.842;8.926;2024-02-26T03:22:21;95283.03;;;7.44;80.99
1401;BME280;46518;48.842;8.926;2024-02-26T03:24:49;95287.78;;;7.42;81.41
1401;BME280;46518;48.842;8.926;2024-02-26T03:27:17;95272.09;;;7.37;82.72
1401;BME280;46518;48.842;8.926;2024-02-26T03:29:45;95280.34;;;7.59;82.66
1401;BME280;46518;48.842;8.926;2024-02-26T03:32:16;95275.13;;;7.04;83.99
1401;BME280;46518;48.842;8.926;2024-02-26T03:34:44;95276.19;;;6.93;85.69
1401;BME280;46518;48.842;8.926;2024-02-26T03:37:12;95269.69;;;6.85;87.28
1401;BME280;46518;48.842;8.926;2024-02-26T03:39:40;95270.75;;;6.79;87.53
1401;BME280;46518;48.842;8.926;2024-02-26T03:42:08;95262.50;;;7.17;87.05
1401;BME280;46518;48.842;8.926;2024-02-26T03:44:37;95257.88;;;7.48;85.48
1401;BME280;46518;48.842;8.926;2024-02-26T03:47:05;95248.06;;;7.74;84.69
1401;BME280;46518;48.842;8.926;2024-02-26T03:49:35;95238.75;;;7.92;84.23
1401;BME280;46518;48.842;8.926;2024-02-26T03:52:03;95239.22;;;7.99;84.23
1401;BME280;46518;48.842;8.926;2024-02-26T03:54:31;95238.63;;;8.07;84.39
1401;BME280;46518;48.842;8.926;2024-02-26T03:56:59;95220.19;;;8.17;84.40
1401;BME280;46518;48.842;8.926;2024-02-26T03:59:28;95223.50;;;8.28;84.01
1401;BME280;46518;48.842;8.926;2024-02-26T04:01:56;95239.22;;;8.28;83.87
1401;BME280;46518;48.842;8.926;2024-02-26T04:04:24;95236.41;;;7.90;85.75
1401;BME280;46518;48.842;8.926;2024-02-26T04:06:54;95232.19;;;7.94;86.49
1401;BME280;46518;48.842;8.926;2024-02-26T04:09:22;95228.81;;;8.18;85.37
1401;BME280;46518;48.842;8.926;2024-02-26T04:11:50;95225.34;;;8.28;84.85
1401;BME280;46518;48.842;8.926;2024-02-26T04:14:18;95221.47;;;8.20;84.72
1401;BME280;46518;48.842;8.926;2024-02-26T04:16:46;95228.78;;;8.23;84.14
1401;BME280;46518;48.842;8.926;2024-02-26T04:19:18;95234.03;;;8.23;84.36
1401;BME280;46518;48.842;8.926;2024-02-26T04:21:46;95235.50;;;8.34;84.57
1401;BME280;46518;48.842;8.926;2024-02-26T04:24:16;95232.31;;;8.37;84.10
1401;BME280;46518;48.842;8.926;2024-02-26T04:26:44;95231.09;;;8.30;83.68
1401;BME280;46518;48.842;8.926;2024-02-26T04:29:12;95234.69;;;8.39;84.20
1401;BME280;46518;48.842;8.926;2024-02-26T04:31:40;95239.59;;;8.46;83.86
1401;BME280;46518;48.842;8.926;2024-02-26T04:34:09;95240.16;;;8.42;83.32
1401;BME280;46518;48.842;8.926;2024-02-26T04:36:40;95245.97;;;8.39;83.53
1401;BME280;46518;48.842;8.926;2024-02-26T04:39:09;95246.47;;;8.41;83.15
1401;BME280;46518;48.842;8.926;2024-02-26T04:41:39;95250.09;;;8.46;83.54
1401;BME280;46518;48.842;8.926;2024-02-26T04:44:07;95237.81;;;8.41;83.20
1401;BME280;46518;48.842;8.926;2024-02-26T04:46:35;95237.75;;;8.46;83.03
1401;BME280;46518;48.842;8.926;2024-02-26T04:49:04;95243.50;;;8.48;82.48
1401;BME280;46518;48.842;8.926;2024-02-26T04:51:33;95251.06;;;8.55;82.30
1401;BME280;46518;48.842;8.926;2024-02-26T04:54:00;95250.13;;;8.40;81.98
1401;BME280;46518;48.842;8.926;2024-02-26T04:56:29;95252.44;;;8.47;81.31
1401;BME280;46518;48.842;8.926;2024-02-26T04:58:58;95255.00;;;8.52;81.53
1401;BME280;46518;48.842;8.926;2024-02-26T05:01:26;95260.00;;;8.54;81.44
1401;BME280;46518;48.842;8.926;2024-02-26T05:03:54;95259.13;;;8.58;81.21
1401;BME280;46518;48.842;8.926;2024-02-26T05:06:22;95254.19;;;8.57;80.67
1401;BME280;46518;48.842;8.926;2024-02-26T05:08:50;95267.06;;;8.53;80.21
1401;BME280;46518;48.842;8.926;2024-02-26T05:11:18;95267.09;;;8.48;80.30
1401;BME280;46518;48.842;8.926;2024-02-26T05:13:47;95268.69;;;8.49;79.97
1401;BME280;46518;48.842;8.926;2024-02-26T05:16:17;95276.50;;;8.54;79.54
1401;BME280;46518;48.842;8.926;2024-02-26T05:18:47;95275.94;;;8.57;78.96
1401;BME280;46518;48.842;8.926;2024-02-26T05:21:15;95278.59;;;8.52;78.67
1401;BME280;46518;48.842;8.926;2024-02-26T05:23:43;95283.38;;;8.45;78.31
1401;BME280;46518;48.842;8.926;2024-02-26T05:26:19;95279.84;;;8.26;78.72
1401;BME280;46518;48.842;8.926;2024-02-26T05:28:47;95297.38;;;7.96;81.71
1401;BME280;46518;48.842;8.926;2024-02-26T05:31:17;95297.63;;;7.55;85.11
1401;BME280;46518;48.842;8.926;2024-02-26T05:33:45;95301.94;;;7.30;87.35
1401;BME280;46518;48.842;8.926;2024-02-26T05:36:18;95296.06;;;6.94;89.87
1401;BME280;46518;48.842;8.926;2024-02-26T05:38:48;95304.19;;;6.87;88.51
1401;BME280;46518;48.842;8.926;2024-02-26T05:41:16;95319.41;;;6.50;91.92
1401;BME280;46518;48.842;8.926;2024-02-26T05:43:49;95320.19;;;6.55;94.39
1401;BME280;46518;48.842;8.926;2024-02-26T05:46:19;95319.94;;;6.67;85.23
1401;BME280;46518;48.842;8.926;2024-02-26T05:48:48;95317.81;;;6.74;84.34
1401;BME280;46518;48.842;8.926;2024-02-26T05:51:17;95322.53;;;6.72;83.74
1401;BME280;46518;48.842;8.926;2024-02-26T05:53:45;95310.47;;;6.81;82.78
1401;BME280;46518;48.842;8.926;2024-02-26T05:56:21;95310.47;;;6.76;82.34
1401;BME280;46518;48.842;8.926;2024-02-26T05:58:49;95314.66;;;6.87;84.27
1401;BME280;46518;48.842;8.926;2024-02-26T06:01:19;95314.38;;;6.84;86.35
1401;BME280;46518;48.842;8.926;2024-02-26T06:03:48;95314.69;;;6.72;89.65
1401;BME280;46518;48.842;8.926;2024-02-26T06:06:17;95318.31;;;6.91;89.74
1401;BME280;46518;48.842;8.926;2024-02-26T06:08:45;95315.03;;;7.25;88.78
1401;BME280;46518;48.842;8.926;2024-02-26T06:11:13;95311.53;;;7.50;87.92
1401;BME280;46518;48.842;8.926;2024-02-26T06:13:41;95312.78;;;7.58;87.14
1401;BME280;46518;48.842;8.926;2024-02-26T06:16:10;95312.16;;;7.82;87.13
1401;BME280;46518;48.842;8.926;2024-02-26T06:18:40;95312.09;;;7.92;86.35
1401;BME280;46518;48.842;8.926;2024-02-26T06:21:09;95308.38;;;7.98;85.92
1401;BME280;46518;48.842;8.926;2024-02-26T06:23:37;95313.06;;;8.01;85.33
1401;BME280;46518;48.842;8.926;2024-02-26T06:26:05;95318.09;;;7.92;85.37
1401;BME280;46518;48.842;8.926;2024-02-26T06:28:34;95318.94;;;7.83;84.82
1401;BME280;46518;48.842;8.926;2024-02-26T06:31:04;95321.03;;;7.81;84.74
1401;BME280;46518;48.842;8.926;2024-02-26T06:33:32;95325.94;;;7.48;85.77
1401;BME280;46518;48.842;8.926;2024-02-26T06:36:02;95328.06;;;7.41;87.45
1401;BME280;46518;48.842;8.926;2024-02-26T06:38:31;95334.13;;;7.31;88.75
1401;BME280;46518;48.842;8.926;2024-02-26T06:40:59;95341.25;;;7.15;88.71
1401;BME280;46518;48.842;8.926;2024-02-26T06:43:28;95342.59;;;7.02;91.53
1401;BME280;46518;48.842;8.926;2024-02-26T06:45:59;95343.47;;;6.46;92.99
1401;BME280;46518;48.842;8.926;2024-02-26T06:48:27;95351.56;;;6.30;95.89
1401;BME280;46518;48.842;8.926;2024-02-26T06:50:55;95359.13;;;6.31;95.73
1401;BME280;46518;48.842;8.926;2024-02-26T06:53:24;95355.19;;;6.44;94.61
1401;BME280;46518;48.842;8.926;2024-02-26T06:55:52;95363.31;;;6.53;92.88
1401;BME280;46518;48.842;8.926;2024-02-26T06:58:20;95366.19;;;6.41;94.72
1401;BME280;46518;48.842;8.926;2024-02-26T07:00:48;95364.09;;;6.48;93.79
1401;BME280;46518;48.842;8.926;2024-02-26T07:03:17;95380.31;;;6.45;94.45
1401;BME280;46518;48.842;8.926;2024-02-26T07:05:45;95382.63;;;6.41;94.32
1401;BME280;46518;48.842;8.926;2024-02-26T07:08:13;95388.91;;;6.45;94.55
1401;BME280;46518;48.842;8.926;2024-02-26T07:10:43;95388.91;;;6.35;96.23
1401;BME280;46518;48.842;8.926;2024-02-26T07:13:11;95387.63;;;6.38;97.27
1401;BME280;46518;48.842;8.926;2024-02-26T07:15:39;95386.06;;;6.47;96.46
1401;BME280;46518;48.842;8.926;2024-02-26T07:18:07;95384.75;;;6.55;96.27
1401;BME280;46518;48.842;8.926;2024-02-26T07:20:37;95384.47;;;6.51;96.94
1401;BME280;46518;48.842;8.926;2024-02-26T07:23:05;95383.94;;;6.39;97.49
1401;BME280;46518;48.842;8.926;2024-02-26T07:25:34;95386.31;;;6.51;98.05
1401;BME280;46518;48.842;8.926;2024-02-26T07:28:04;95397.81;;;6.50;99.63
1401;BME280;46518;48.842;8.926;2024-02-26T07:30:32;95391.28;;;6.52;98.63
1401;BME280;46518;48.842;8.926;2024-02-26T07:33:00;95391.81;;;6.49;98.45
1401;BME280;46518;48.842;8.926;2024-02-26T07:35:28;95382.13;;;6.55;99.10
1401;BME280;46518;48.842;8.926;2024-02-26T07:37:59;95394.66;;;6.68;98.42
1401;BME280;46518;48.842;8.926;2024-02-26T07:40:27;95382.38;;;6.63;97.96
1401;BME280;46518;48.842;8.926;2024-02-26T07:42:56;95377.41;;;6.77;97.55
1401;BME280;46518;48.842;8.926;2024-02-26T07:45:25;95381.59;;;6.78;98.12
1401;BME280;46518;48.842;8.926;2024-02-26T07:47:53;95391.00;;;6.79;97.33
1401;BME280;46518;48.842;8.926;2024-02-26T07:50:22;95398.56;;;6.81;97.85
1401;BME280;46518;48.842;8.926;2024-02-26T07:52:50;95393.09;;;6.87;97.65
1401;BME280;46518;48.842;8.926;2024-02-26T07:55:19;95383.16;;;6.84;97.32
1401;BME280;46518;48.842;8.926;2024-02-26T07:57:49;95387.31;;;7.01;96.04
1401;BME280;46518;48.842;8.926;2024-02-26T08:00:16;95389.66;;;7.02;96.40
1401;BME280;46518;48.842;8.926;2024-02-26T08:02:46;95386.50;;;7.05;96.63
1401;BME280;46518;48.842;8.926;2024-02-26T08:05:14;95377.13;;;6.99;95.77
1401;BME280;46518;48.842;8.926;2024-02-26T08:07:43;95385.63;;;7.41;95.91
1401;BME280;46518;48.842;8.926;2024-02-26T08:10:11;95386.13;;;7.48;95.31
1401;BME280;46518;48.842;8.926;2024-02-26T08:12:39;95390.78;;;7.61;95.65
1401;BME280;46518;48.842;8.926;2024-02-26T08:15:08;95384.97;;;7.74;95.59
1401;BME280;46518;48.842;8.926;2024-02-26T08:17:38;95384.88;;;7.95;94.82
1401;BME280;46518;48.842;8.926;2024-02-26T08:20:08;95378.06;;;7.94;92.39
1401;BME280;46518;48.842;8.926;2024-02-26T08:22:36;95383.72;;;7.62;92.75
1401;BME280;46518;48.842;8.926;2024-02-26T08:25:06;95379.91;;;7.28;95.26
1401;BME280;46518;48.842;8.926;2024-02-26T08:27:36;95396.63;;;7.38;95.24
1401;BME280;46518;48.842;8.926;2024-02-26T08:30:05;95401.50;;;7.65;94.85
1401;BME280;46518;48.842;8.926;2024-02-26T08:32:34;95402.31;;;7.60;94.58
1401;BME280;46518;48.842;8.926;2024-02-26T08:35:03;95405.16;;;7.69;95.03
1401;BME280;46518;48.842;8.926;2024-02-26T08:37:32;95409.94;;;8.06;94.70
1401;BME280;46518;48.842;8.926;2024-02-26T08:40:00;95405.03;;;8.44;93.02
1401;BME280;46518;48.842;8.926;2024-02-26T08:42:33;95409.31;;;8.69;91.82
1401;BME280;46518;48.842;8.926;2024-02-26T08:45:01;95417.91;;;8.75;90.82
1401;BME280;46518;48.842;8.926;2024-02-26T08:47:30;95419.38;;;8.86;89.52
1401;BME280;46518;48.842;8.926;2024-02-26T08:49:59;95420.91;;;8.58;89.51
1401;BME280;46518;48.842;8.926;2024-02-26T08:52:27;95423.16;;;8.75;88.66
1401;BME280;46518;48.842;8.926;2024-02-26T08:54:57;95416.97;;;8.60;87.74
1401;BME280;46518;48.842;8.926;2024-02-26T08:57:25;95418.88;;;8.05;89.88
1401;BME280;46518;48.842;8.926;2024-02-26T08:59:54;95417.41;;;7.89;93.10
1401;BME280;46518;48.842;8.926;2024-02-26T09:02:22;95421.91;;;8.23;91.19
1401;BME280;46518;48.842;8.926;2024-02-26T09:04:50;95420.25;;;8.42;92.46
1401;BME280;46518;48.842;8.926;2024-02-26T09:07:20;95427.50;;;8.06;91.37
1401;BME280;46518;48.842;8.926;2024-02-26T09:09:49;95417.38;;;8.33;92.03
1401;BME280;46518;48.842;8.926;2024-02-26T09:12:19;95429.66;;;8.43;91.00
1401;BME280;46518;48.842;8.926;2024-02-26T09:14:48;95423.16;;;8.75;90.05
1401;BME280;46518;48.842;8.926;2024-02-26T09:17:16;95427.19;;;8.96;88.70
1401;BME280;46518;48.842;8.926;2024-02-26T09:19:44;95423.50;;;8.97;87.62
1401;BME280;46518;48.842;8.926;2024-02-26T09:22:12;95410.56;;;9.30;87.59
1401;BME280;46518;48.842;8.926;2024-02-26T09:24:44;95413.44;;;9.58;86.68
1401;BME280;46518;48.842;8.926;2024-02-26T09:27:12;95425.94;;;9.66;85.30
1401;BME280;46518;48.842;8.926;2024-02-26T09:29:42;95430.00;;;9.77;84.06
1401;BME280;46518;48.842;8.926;2024-02-26T09:32:10;95426.09;;;9.50;83.03
1401;BME280;46518;48.842;8.926;2024-02-26T09:34:39;95431.69;;;9.20;81.02
1401;BME280;46518;48.842;8.926;2024-02-26T09:37:08;95427.63;;;9.57;82.68
1401;BME280;46518;48.842;8.926;2024-02-26T09:39:47;95421.38;;;9.96;81.75
1401;BME280;46518;48.842;8.926;2024-02-26T09:42:18;95417.63;;;10.21;81.42
1401;BME280;46518;48.842;8.926;2024-02-26T09:44:51;95419.00;;;10.37;80.61
1401;BME280;46518;48.842;8.926;2024-02-26T09:47:21;95424.06;;;10.52;80.37
1401;BME280;46518;48.842;8.926;2024-02-26T09:49:51;95427.59;;;10.62;79.03
1401;BME280;46518;48.842;8.926;2024-02-26T09:52:21;95427.72;;;10.70;77.86
1401;BME280;46518;48.842;8.926;2024-02-26T09:54:51;95441.38;;;10.72;77.32
1401;BME280;46518;48.842;8.926;2024-02-26T09:57:19;95448.53;;;10.86;76.73
1401;BME280;46518;48.842;8.926;2024-02-26T09:59:53;95440.50;;;10.96;76.01
1401;BME280;46518;48.842;8.926;2024-02-26T10:02:22;95446.13;;;11.03;75.24
1401;BME280;46518;48.842;8.926;2024-02-26T10:04:50;95445.69;;;11.15;74.59
1401;BME280;46518;48.842;8.926;2024-02-26T10:07:20;95436.34;;;11.22;74.03
1401;BME280;46518;48.842;8.926;2024-02-26T10:09:49;95436.38;;;11.36;73.74
1401;BME280;46518;48.842;8.926;2024-02-26T10:12:18;95441.94;;;11.49;73.34
1401;BME280;46518;48.842;8.926;2024-02-26T10:14:47;95435.22;;;11.56;72.99
1401;BME280;46518;48.842;8.926;2024-02-26T10:17:17;95434.72;;;11.54;73.04
1401;BME280;46518;48.842;8.926;2024-02-26T10:19:46;95440.66;;;11.60;72.78
1401;BME280;46518;48.842;8.926;2024-02-26T10:22:15;95423.59;;;11.57;72.41
1401;BME280;46518;48.842;8.926;2024-02-26T10:24:43;95439.81;;;11.64;71.73
1401;BME280;46518;48.842;8.926;2024-02-26T10:27:11;95447.59;;;11.70;71.47
1401;BME280;46518;48.842;8.926;2024-02-26T10:29:39;95448.97;;;11.81;70.64
1401;BME280;46518;48.842;8.926;2024-02-26T10:32:10;95449.09;;;11.90;70.45
1401;BME280;46518;48.842;8.926;2024-02-26T10:34:41;95453.09;;;12.01;70.77
1401;BME280;46518;48.842;8.926;2024-02-26T10:37:10;95453.06;;;12.15;70.15
1401;BME280;46518;48.842;8.926;2024-02-26T10:39:38;95455.91;;;12.18;69.31
1401;BME280;46518;48.842;8.926;2024-02-26T10:42:12;95463.44;;;12.11;69.01
1401;BME280;46518;48.842;8.926;2024-02-26T10:44:41;95449.28;;;12.07;68.84
1401;BME280;46518;48.842;8.926;2024-02-26T10:47:10;95451.13;;;12.06;68.78
1401;BME280;46518;48.842;8.926;2024-02-26T10:49:38;95449.38;;;12.02;68.32
1401;BME280;46518;48.842;8.926;2024-02-26T10:52:08;95456.78;;;12.14;68.14
1401;BME280;46518;48.842;8.926;2024-02-26T10:54:38;95461.97;;;12.19;67.94
1401;BME280;46518;48.842;8.926;2024-02-26T10:57:09;95473.78;;;12.21;67.58
1401;BME280;46518;48.842;8.926;2024-02-26T10:59:38;95472.78;;;12.31;66.78
1401;BME280;46518;48.842;8.926;2024-02-26T11:02:07;95470.03;;;12.36;66.64
1401;BME280;46518;48.842;8.926;2024-02-26T11:04:37;95471.00;;;12.40;66.06
1401;BME280;46518;48.842;8.926;2024-02-26T11:07:09;95475.09;;;12.46;65.56
1401;BME280;46518;48.842;8.926;2024-02-26T11:09:37;95474.22;;;12.51;65.58
1401;BME280;46518;48.842;8.926;2024-02-26T11:12:13;95478.22;;;12.48;64.75
1401;BME280;46518;48.842;8.926;2024-02-26T11:14:42;95478.59;;;12.56;64.99
1401;BME280;46518;48.842;8.926;2024-02-26T11:17:12;95482.06;;;12.65;64.75
1401;BME280;46518;48.842;8.926;2024-02-26T11:19:41;95474.72;;;12.76;64.26
1401;BME280;46518;48.842;8.926;2024-02-26T11:22:12;95474.00;;;12.84;63.53
1401;BME280;46518;48.842;8.926;2024-02-26T11:24:50;95464.81;;;12.81;62.07
1401;BME280;46518;48.842;8.926;2024-02-26T11:27:19;95466.72;;;12.89;61.77
1401;BME280;46518;48.842;8.926;2024-02-26T11:29:51;95471.91;;;12.94;60.65
1401;BME280;46518;48.842;8.926;2024-02-26T11:32:20;95479.88;;;13.03;60.62
1401;BME280;46518;48.842;8.926;2024-02-26T11:34:49;95471.72;;;13.13;59.91
1401;BME280;46518;48.842;8.926;2024-02-26T11:37:19;95466.59;;;13.17;60.43
1401;BME280;46518;48.842;8.926;2024-02-26T11:39:48;95469.84;;;13.36;59.81
1401;BME280;46518;48.842;8.926;2024-02-26T11:42:23;95464.72;;;13.40;58.78
1401;BME280;46518;48.842;8.926;2024-02-26T11:44:52;95468.47;;;13.39;58.47
1401;BME280;46518;48.842;8.926;2024-02-26T11:47:21;95474.53;;;13.40;57.83
1401;BME280;46518;48.842;8.926;2024-02-26T11:49:49;95467.44;;;13.49;57.62
1401;BME280;46518;48.842;8.926;2024-02-26T11:52:19;95468.06;;;13.54;57.58
1401;BME280;46518;48.842;8.926;2024-02-26T11:54:48;95460.78;;;13.60;57.41
1401;BME280;46518;48.842;8.926;2024-02-26T11:57:25;95468.72;;;13.60;56.66
1401;BME280;46518;48.842;8.926;2024-02-26T11:59:55;95464.53;;;13.68;56.76
1401;BME280;46518;48.842;8.926;2024-02-26T12:02:40;95476.56;;;13.74;57.28
1401;BME280;46518;48.842;8.926;2024-02-26T12:05:11;95473.63;;;13.84;56.94
1401;BME280;46518;48.842;8.926;2024-02-26T12:07:44;95476.56;;;13.82;56.63
1401;BME280;46518;48.842;8.926;2024-02-26T12:10:22;95478.75;;;13.80;56.23
1401;BME280;46518;48.842;8.926;2024-02-26T12:12:59;95484.97;;;13.85;55.93
1401;BME280;46518;48.842;8.926;2024-02-26T12:15:32;95474.88;;;13.78;55.38
1401;BME280;46518;48.842;8.926;2024-02-26T12:18:02;95486.84;;;13.75;55.48
1401;BME280;46518;48.842;8.926;2024-02-26T12:20:31;95486.84;;;13.84;56.06
1401;BME280;46518;48.842;8.926;2024-02-26T12:23:01;95486.41;;;13.91;56.03
1401;BME280;46518;48.842;8.926;2024-02-26T12:25:31;95489.78;;;13.82;55.77
1401;BME280;46518;48.842;8.926;2024-02-26T12:27:59;95490.72;;;13.78;55.27
1401;BME280;46518;48.842;8.926;2024-02-26T12:30:30;95500.34;;;13.74;55.40
1401;BME280;46518;48.842;8.926;2024-02-26T12:33:00;95489.44;;;13.67;55.40
1401;BME280;46518;48.842;8.926;2024-02-26T12:35:29;95492.50;;;13.60;55.49
1401;BME280;46518;48.842;8.926;2024-02-26T12:38:00;95491.09;;;13.54;55.44
1401;BME280;46518;48.842;8.926;2024-02-26T12:40:31;95485.75;;;13.45;55.74
1401;BME280;46518;48.842;8.926;2024-02-26T12:42:59;95496.78;;;13.47;55.13
1401;BME280;46518;48.842;8.926;2024-02-26T12:45:28;95501.31;;;13.47;54.91
1401;BME280;46518;48.842;8.926;2024-02-26T12:47:56;95501.66;;;13.54;55.15
1401;BME280;46518;48.842;8.926;2024-02-26T12:50:24;95492.00;;;13.49;54.79
1401;BME280;46518;48.842;8.926;2024-02-26T12:52:53;95496.53;;;13.57;55.06
1401;BME280;46518;48.842;8.926;2024-02-26T12:55:22;95494.56;;;13.63;55.14
1401;BME280;46518;48.842;8.926;2024-02-26T12:57:51;95496.72;;;13.61;55.89
1401;BME280;46518;48.842;8.926;2024-02-26T13:00:24;95506.97;;;13.63;56.89
1401;BME280;46518;48.842;8.926;2024-02-26T13:02:53;95509.06;;;13.74;57.69
1401;BME280;46518;48.842;8.926;2024-02-26T13:05:23;95515.78;;;13.80;57.97
1401;BME280;46518;48.842;8.926;2024-02-26T13:07:52;95503.97;;;13.87;57.48
1401;BME280;46518;48.842;8.926;2024-02-26T13:10:21;95506.34;;;13.97;56.85
1401;BME280;46518;48.842;8.926;2024-02-26T13:12:49;95510.72;;;14.10;56.40
1401;BME280;46518;48.842;8.926;2024-02-26T13:15:19;95501.88;;;14.15;55.93
1401;BME280;46518;48.842;8.926;2024-02-26T13:17:48;95511.25;;;14.30;54.97
1401;BME280;46518;48.842;8.926;2024-02-26T13:20:25;95503.34;;;14.38;53.60
1401;BME280;46518;48.842;8.926;2024-02-26T13:23:02;95503.69;;;14.45;52.47
1401;BME280;46518;48.842;8.926;2024-02-26T13:25:32;95510.09;;;14.53;52.36
1401;BME280;46518;48.842;8.926;2024-02-26T13:28:13;95512.75;;;14.62;51.28
1401;BME280;46518;48.842;8.926;2024-02-26T13:30:50;95516.81;;;14.68;51.09